Happy Valentine's Day! 

Flight Track Log - Related Links

Times and Time Zones

All times are in EDT time to prevent confusion due to time zone crossing. See the N550JG flight status page for this flight to view local times or setup timezone preferences in your user account.


Time Position Orientation Groundspeed Altitude Reporting Facility
EDT Latitude Longitude Course Direction KTS MPH feet Rate Location/Type
Fri 05:37:00 PM 35.2183 -82.6492 202° Southwest  Level FlightAware Approximate
Fri 05:38:00 PM 35.1819 -82.6675 205° Southwest  Level FlightAware Approximate
Fri 05:39:00 PM 35.1463 -82.6879 205° Southwest  Level FlightAware Approximate
Fri 05:40:00 PM 35.1106 -82.7082 205° Southwest  Level FlightAware Approximate
Fri 05:41:00 PM 35.0750 -82.7286 205° Southwest  Level FlightAware Approximate
Fri 05:42:00 PM 35.0387 -82.7473 202° Southwest  Level FlightAware Approximate
Fri 05:43:00 PM 35.0023 -82.7655 202° Southwest  Level FlightAware Approximate
Fri 05:44:00 PM 34.9659 -82.7838 202° Southwest  Level FlightAware Approximate
Fri 05:45:00 PM 34.9295 -82.8020 203° Southwest  Level FlightAware Approximate
Fri 05:46:00 PM 34.8933 -82.8210 203° Southwest  Level FlightAware Approximate
Fri 05:47:00 PM 34.8573 -82.8400 203° Southwest  Level FlightAware Approximate
Fri 05:48:00 PM 34.8213 -82.8589 203° Southwest  Level FlightAware Approximate
Fri 05:49:00 PM 34.7853 -82.8778 203° Southwest  Level FlightAware Approximate
Fri 05:50:00 PM 34.7492 -82.8966 203° Southwest  Level FlightAware Approximate
Fri 05:51:00 PM 34.7132 -82.9155 203° Southwest  Level FlightAware Approximate
Fri 05:52:00 PM 34.6772 -82.9343 203° Southwest  Level FlightAware Approximate
Fri 05:53:00 PM 34.6411 -82.9532 203° Southwest  Level FlightAware Approximate
Fri 05:54:00 PM 34.6051 -82.9720 203° Southwest  Level FlightAware Approximate
Fri 05:54:20 PM 34.8961 -82.7853 205° Southwest 132 152 10,100  Level Atlanta Center
Fri 05:55:00 PM 34.5686 -82.9893 198° South  Level FlightAware Approximate
Fri 05:56:00 PM 34.5313 -83.0042 198° South  Level FlightAware Approximate
Fri 05:57:00 PM 34.4943 -83.0199 205° Southwest  Level FlightAware Approximate
Fri 05:57:08 PM 34.8131 -82.8344 206° Southwest 133 153 10,000  Level Atlanta Center
Fri 05:58:00 PM 34.4587 -83.0399 205° Southwest  Level FlightAware Approximate
Fri 05:58:08 PM 34.7881 -82.8475 203° Southwest 113 130 10,000  Level Atlanta Center
Fri 05:59:08 PM 34.7592 -82.8631 204° Southwest 113 130 10,100 50 Climbing Atlanta Center
Fri 06:00:08 PM 34.7281 -82.8811 206° Southwest 119 137 10,100  Level Atlanta Center
Fri 06:01:08 PM 34.6969 -82.9019 209° Southwest 124 143 10,100  Level Atlanta Center
Fri 06:02:08 PM 34.6636 -82.9200 204° Southwest 129 148 10,100  Level Atlanta Center
Fri 06:03:08 PM 34.6325 -82.9381 206° Southwest 129 148 10,100  Level Atlanta Center
Fri 06:04:08 PM 34.5992 -82.9561 204° Southwest 129 148 10,100  Level Atlanta Center
Fri 06:05:08 PM 34.5681 -82.9742 206° Southwest 129 148 10,100  Level Atlanta Center
Fri 06:06:08 PM 34.5369 -82.9947 209° Southwest 129 148 10,100  Level Atlanta Center
Fri 06:07:08 PM 34.5036 -83.0103 201° Southwest 129 148 10,100  Level Atlanta Center
Fri 06:08:08 PM 34.4706 -83.0308 207° Southwest 129 148 10,100  Level Atlanta Center
Fri 06:09:08 PM 34.4394 -83.0489 206° Southwest 129 148 10,100  Level Atlanta Center
Fri 06:10:08 PM 34.4081 -83.0669 205° Southwest 129 148 10,100 -50 Level Atlanta Center
Fri 06:11:08 PM 34.3706 -83.0672 180° South 129 148 10,000 -50 Descending Atlanta Center
Fri 06:12:08 PM 34.3331 -83.0603 171° South 129 148 10,000  Level Atlanta Center
Fri 06:13:08 PM 34.2953 -83.0581 177° South 134 154 10,000  Level Atlanta Center
Fri 06:14:08 PM 34.2600 -83.0536 174° South 134 154 10,000  Level Atlanta Center
Fri 06:15:08 PM 34.2244 -83.0489 174° South 134 154 10,000  Level Atlanta Center
Fri 06:16:08 PM 34.1847 -83.0444 175° South 139 160 10,000  Level Atlanta Center
Fri 06:17:08 PM 34.1492 -83.0397 174° South 139 160 10,000  Level Atlanta Center
Fri 06:19:30 PM 34.0667 -83.0500 186° South 130 150 10,000  Level Atlanta TRACON
Fri 06:20:30 PM 34.0333 -83.0667 203° Southwest 131 151 10,000  Level Atlanta TRACON
Fri 06:21:30 PM 34.0000 -83.0667 180° South 131 151 10,000 -50 Level Atlanta TRACON
Fri 06:22:30 PM 33.9667 -83.0833 203° Southwest 129 148 9,900 -52 Descending Atlanta TRACON
Fri 06:23:25 PM 33.9333 -83.0833 180° South 125 144 9,900 50 Level Atlanta TRACON
Fri 06:24:30 PM 33.8833 -83.1000 195° South 128 147 10,000 48 Climbing Atlanta TRACON
Fri 06:25:30 PM 33.8500 -83.1000 180° South 129 148 10,000  Level Atlanta TRACON
Fri 06:26:25 PM 33.8333 -83.1167 220° Southwest 130 150 10,000  Level Atlanta TRACON
Fri 06:27:25 PM 33.7833 -83.1167 180° South 133 153 10,000  Level Atlanta TRACON
Fri 06:28:25 PM 33.7500 -83.1333 203° Southwest 131 151 10,000  Level Atlanta TRACON
Fri 06:29:25 PM 33.7167 -83.1333 180° South 128 147 10,000  Level Atlanta TRACON
Fri 06:30:25 PM 33.6833 -83.1500 203° Southwest 131 151 10,000 -150 Level Atlanta TRACON
Fri 06:31:25 PM 33.6500 -83.1500 180° South 136 157 9,700 -300 Descending Atlanta TRACON
Fri 06:32:25 PM 33.6000 -83.1500 180° South 144 166 9,400 -250 Descending Atlanta TRACON
Fri 06:33:25 PM 33.5667 -83.1333 157° South 146 168 9,200 -200 Descending Atlanta TRACON
Fri 06:34:25 PM 33.5333 -83.1333 180° South 144 166 9,000 -100 Descending Atlanta TRACON
Fri 06:35:25 PM 33.4833 -83.1167 164° South 137 158 9,000  Level Atlanta TRACON
Fri 06:36:25 PM 33.4500 -83.1000 157° South 137 158 9,000  Level Atlanta TRACON
Fri 06:37:25 PM 33.4167 -83.1000 180° South 130 150 9,000  Level Atlanta TRACON
Fri 06:38:25 PM 33.3833 -83.0833 157° South 134 154 9,000  Level Atlanta TRACON
Fri 06:39:25 PM 33.3500 -83.0667 157° South 135 155 9,000  Level Atlanta TRACON
Fri 06:40:25 PM 33.3167 -83.0667 180° South 138 159 9,000  Level Atlanta TRACON
Fri 06:41:25 PM 33.2667 -83.0500 164° South 132 152 9,000  Level Atlanta TRACON
Fri 06:42:25 PM 33.2333 -83.0333 157° South 134 154 9,000  Level Atlanta TRACON
Fri 06:43:25 PM 33.2000 -83.0333 180° South 137 158 9,000  Level Atlanta TRACON
Fri 06:44:25 PM 33.1667 -83.0167 157° South 136 157 9,000  Level Atlanta TRACON
Fri 06:45:25 PM 33.1333 -83.0000 157° South 140 161 9,000  Level Atlanta TRACON
Fri 06:46:25 PM 33.0833 -83.0000 180° South 139 160 9,000  Level Atlanta TRACON
Fri 06:47:25 PM 33.0500 -82.9833 157° South 141 162 9,000  Level Atlanta TRACON
Fri 06:48:25 PM 33.0167 -82.9667 157° South 137 158 9,000  Level Atlanta TRACON
Fri 06:49:25 PM 32.9833 -82.9667 180° South 137 158 9,000  Level Atlanta TRACON
Fri 06:50:25 PM 32.9500 -82.9500 157° South 137 158 9,000  Level Atlanta TRACON
Fri 06:51:25 PM 32.9000 -82.9333 164° South 137 158 9,000  Level Atlanta TRACON
Fri 06:52:25 PM 32.8667 -82.9333 180° South 141 162 9,000  Level Atlanta TRACON
Fri 06:53:25 PM 32.8333 -82.9167 157° South 140 161 9,000  Level Atlanta TRACON
Fri 06:54:25 PM 32.8000 -82.9000 157° South 141 162 9,000  Level Atlanta TRACON
Fri 06:55:25 PM 32.7500 -82.9000 180° South 140 161 9,000  Level Atlanta TRACON
Fri 06:56:25 PM 32.7167 -82.8833 157° South 139 160 9,000  Level Atlanta TRACON
Fri 06:58:02 PM 32.6550 -82.8606 163° South 145 167 9,000  Level Jacksonville Center
Fri 06:59:02 PM 32.6175 -82.8481 164° South 145 167 9,000  Level Jacksonville Center
Fri 07:00:02 PM 32.5778 -82.8383 168° South 145 167 9,000  Level Jacksonville Center
Fri 07:01:02 PM 32.5403 -82.8286 168° South 145 167 9,000  Level Jacksonville Center
Fri 07:02:02 PM 32.5047 -82.8186 167° South 145 167 9,000  Level Jacksonville Center
Fri 07:03:02 PM 32.4692 -82.8064 164° South 145 167 9,000  Level Jacksonville Center
Fri 07:04:02 PM 32.4294 -82.7942 165° South 145 167 9,000  Level Jacksonville Center
Fri 07:05:02 PM 32.3919 -82.7842 167° South 145 167 9,000  Level Jacksonville Center
Fri 07:06:02 PM 32.3503 -82.7672 161° South 139 160 9,000  Level Jacksonville Center
Fri 07:07:02 PM 32.3125 -82.7622 174° South 144 166 9,000  Level Jacksonville Center
Fri 07:08:02 PM 32.2750 -82.7600 177° South 144 166 9,000  Level Jacksonville Center
Fri 07:09:02 PM 32.2375 -82.7525 170° South 144 166 9,000  Level Jacksonville Center
Fri 07:10:02 PM 32.1997 -82.7453 171° South 144 166 9,000  Level Jacksonville Center
Fri 07:11:02 PM 32.1622 -82.7381 171° South 137 158 9,000  Level Jacksonville Center
Fri 07:12:02 PM 32.1206 -82.7308 172° South 137 158 9,000  Level Jacksonville Center
Fri 07:13:02 PM 32.0850 -82.7233 170° South 142 163 9,000  Level Jacksonville Center
Fri 07:14:02 PM 32.0453 -82.7186 174° South 142 163 9,000  Level Jacksonville Center
Fri 07:15:02 PM 32.0097 -82.7089 167° South 142 163 9,000  Level Jacksonville Center
Fri 07:16:02 PM 31.9744 -82.7039 173° South 142 163 9,000  Level Jacksonville Center
Fri 07:17:02 PM 31.9367 -82.6967 171° South 142 163 9,000  Level Jacksonville Center
Fri 07:18:02 PM 31.8992 -82.6894 171° South 142 163 9,000  Level Jacksonville Center
Fri 07:19:02 PM 31.8617 -82.6847 174° South 142 163 9,000  Level Jacksonville Center
Fri 07:20:02 PM 31.8261 -82.6775 170° South 142 163 9,000  Level Jacksonville Center
Fri 07:21:02 PM 31.7864 -82.6703 171° South 142 163 9,000  Level Jacksonville Center
Fri 07:22:02 PM 31.7508 -82.6631 170° South 142 163 9,000  Level Jacksonville Center
Fri 07:23:02 PM 31.7153 -82.6581 173° South 142 163 9,000  Level Jacksonville Center
Fri 07:24:02 PM 31.6778 -82.6508 171° South 142 163 9,000  Level Jacksonville Center
Fri 07:25:02 PM 31.6422 -82.6436 170° South 142 163 9,000  Level Jacksonville Center
Fri 07:26:02 PM 31.6067 -82.6389 174° South 142 163 9,000  Level Jacksonville Center
Fri 07:27:02 PM 31.5692 -82.6317 171° South 142 163 9,000  Level Jacksonville Center
Fri 07:28:02 PM 31.5336 -82.6244 170° South 142 163 9,000  Level Jacksonville Center
Fri 07:29:02 PM 31.5003 -82.6172 170° South 142 163 9,000  Level Jacksonville Center
Fri 07:30:02 PM 31.4606 -82.6125 174° South 142 163 9,000  Level Jacksonville Center
Fri 07:31:02 PM 31.4272 -82.6053 170° South 142 163 9,000  Level Jacksonville Center
Fri 07:32:02 PM 31.3894 -82.5981 171° South 142 163 9,000  Level Jacksonville Center
Fri 07:33:02 PM 31.3519 -82.5933 174° South 142 163 9,000  Level Jacksonville Center
Fri 07:34:02 PM 31.3186 -82.5886 173° South 142 163 9,000  Level Jacksonville Center
Fri 07:35:02 PM 31.2808 -82.5814 171° South 137 158 9,000  Level Jacksonville Center
Fri 07:36:02 PM 31.2453 -82.5742 170° South 137 158 9,000  Level Jacksonville Center
Fri 07:37:02 PM 31.2078 -82.5694 174° South 137 158 9,000  Level Jacksonville Center
Fri 07:38:03 PM 31.1722 -82.5622 170° South 137 158 9,000  Level Jacksonville Center
Fri 07:39:02 PM 31.1347 -82.5578 174° South 137 158 9,000  Level Jacksonville Center
Fri 07:40:02 PM 31.0992 -82.5506 170° South 142 163 9,000  Level Jacksonville Center
Fri 07:41:02 PM 31.0658 -82.5408 166° South 137 158 9,000  Level Jacksonville Center
Fri 07:42:02 PM 31.0281 -82.5361 174° South 137 158 9,000  Level Jacksonville Center
Fri 07:43:02 PM 30.9906 -82.5292 171° South 137 158 9,000  Level Jacksonville Center
Fri 07:44:02 PM 30.9528 -82.5244 174° South 137 158 9,000  Level Jacksonville Center
Fri 07:45:02 PM 30.9258 -82.5172 167° South 142 163 9,000  Level Jacksonville Center
Fri 07:46:02 PM 30.8797 -82.5100 172° South 137 158 9,000  Level Jacksonville Center
Fri 07:47:02 PM 30.8442 -82.5031 170° South 142 163 9,000  Level Jacksonville Center
Fri 07:48:02 PM 30.8089 -82.4983 173° South 142 163 9,000  Level Jacksonville Center
Fri 07:49:02 PM 30.7711 -82.4911 171° South 142 163 9,000  Level Jacksonville Center
Fri 07:50:02 PM 30.7356 -82.4842 170° South 142 163 9,000  Level Jacksonville Center
Fri 07:51:02 PM 30.6981 -82.4769 171° South 142 163 9,000  Level Jacksonville Center
Fri 07:52:02 PM 30.6606 -82.4700 171° South 142 163 9,000  Level Jacksonville Center
Fri 07:53:02 PM 30.6228 -82.4653 174° South 142 163 9,000  Level Jacksonville Center
Fri 07:54:02 PM 30.5872 -82.4583 170° South 142 163 9,000  Level Jacksonville Center
Fri 07:55:02 PM 30.5497 -82.4511 171° South 142 163 9,000  Level Jacksonville Center
Fri 07:56:02 PM 30.5142 -82.4464 173° South 142 163 9,000  Level Jacksonville Center
Fri 07:57:02 PM 30.4767 -82.4394 171° South 142 163 9,000  Level Jacksonville Center
Fri 07:58:02 PM 30.4411 -82.4322 170° South 142 163 9,000  Level Jacksonville Center
Fri 07:59:02 PM 30.4033 -82.4278 174° South 142 163 9,000  Level Jacksonville Center
Fri 08:00:02 PM 30.3658 -82.4208 171° South 142 163 9,000  Level Jacksonville Center
Fri 08:01:02 PM 30.3283 -82.4136 171° South 142 163 9,000  Level Jacksonville Center
Fri 08:02:02 PM 30.2906 -82.4089 174° South 142 163 9,000  Level Jacksonville Center
Fri 08:03:02 PM 30.2508 -82.4019 171° South 142 163 9,000  Level Jacksonville Center
Fri 08:04:02 PM 30.2133 -82.3925 168° South 142 163 9,000  Level Jacksonville Center
Fri 08:04:32 PM 30.1903 -82.3903 175° South 141 162 9,000  Level Jacksonville Center
Fri 08:05:02 PM 30.1778 -82.3881 171° South 142 163 9,000  Level Jacksonville Center
Fri 08:06:10 PM 30.1319 -82.3811 173° South 134 154 9,000  Level Jacksonville Center
Fri 08:07:02 PM 30.1025 -82.3739 168° South 142 163 9,000  Level Jacksonville Center
Fri 08:08:02 PM 30.0608 -82.3669 172° South 142 163 9,000  Level Jacksonville Center
Fri 08:09:02 PM 30.0253 -82.3622 173° South 142 163 9,000  Level Jacksonville Center
Fri 08:09:12 PM 30.0106 -82.3600 173° South 137 158 9,000  Level Jacksonville Center
Fri 08:10:02 PM 29.9836 -82.3531 167° South 142 163 9,000  Level Jacksonville Center
Fri 08:10:13 PM 29.9731 -82.3531 180° South 140 161 9,000  Level Jacksonville Center
Fri 08:11:02 PM 29.9439 -82.3483 172° South 142 163 9,000  Level Jacksonville Center
Fri 08:11:14 PM 29.9375 -82.3486 182° South 140 161 9,000  Level Jacksonville Center
Fri 08:12:02 PM 29.9061 -82.3392 165° South 142 163 9,000  Level Jacksonville Center
Fri 08:13:02 PM 29.8708 -82.3344 173° South 142 163 9,000  Level Jacksonville Center
Fri 08:14:02 PM 29.8353 -82.3275 170° South 142 163 9,000  Level Jacksonville Center
Fri 08:15:17 PM 29.7808 -82.3206 174° South 139 160 9,000  Level Jacksonville Center
Fri 08:16:12 PM 29.7453 -82.3208 180° South 140 161 9,000  Level Jacksonville Center
Fri 08:17:25 PM 29.6972 -82.3117 171° South 139 160 9,000  Level Jacksonville Center
Fri 08:18:14 PM 29.6681 -82.3047 168° South 140 161 9,000  Level Jacksonville Center
Fri 08:19:15 PM 29.6306 -82.3000 174° South 141 162 9,000  Level Jacksonville Center
Fri 08:20:15 PM 29.5886 -82.2931 172° South 138 159 9,000  Level Jacksonville Center
Fri 08:21:22 PM 29.5469 -82.2861 172° South 139 160 9,000  Level Jacksonville Center
Fri 08:22:17 PM 29.5114 -82.2792 170° South 139 160 9,000  Level Jacksonville Center
Fri 08:23:30 PM 29.4653 -82.2675 168° South 139 160 9,000  Level Jacksonville Center
Fri 08:24:37 PM 29.4217 -82.2631 175° South 142 163 9,000  Level Jacksonville Center
Fri 08:25:38 PM 29.3819 -82.2561 171° South 136 157 9,000  Level Jacksonville Center
Fri 08:26:38 PM 29.3442 -82.2494 171° South 140 161 9,000  Level Jacksonville Center
Fri 08:27:39 PM 29.3044 -82.2425 171° South 142 163 9,000  Level Jacksonville Center
Fri 08:28:22 PM 29.2753 -82.2378 172° South 142 163 9,000  Level Jacksonville Center
Fri 08:29:22 PM 29.2378 -82.2311 171° South 141 162 9,000  Level Jacksonville Center
Fri 08:30:23 PM 29.1981 -82.2242 171° South 141 162 9,000  Level Jacksonville Center
Fri 08:31:36 PM 29.1500 -82.2172 173° South 142 163 9,000  Level Jacksonville Center
Fri 08:32:25 PM 29.1186 -82.2128 173° South 143 165 9,000  Level Jacksonville Center
Fri 08:33:44 PM 29.0664 -82.2014 169° South 142 163 9,000  Level Jacksonville Center
Fri 08:34:44 PM 29.0286 -82.1944 171° South 140 161 9,000  Level Jacksonville Center
Fri 08:35:27 PM 28.9994 -82.1897 172° South 141 162 9,000  Level Jacksonville Center
Fri 08:36:28 PM 28.9597 -82.1853 174° South 141 162 9,000  Level Jacksonville Center
Fri 08:37:29 PM 28.9200 -82.1786 172° South 139 160 9,000  Level Jacksonville Center
Fri 08:38:30 PM 28.8825 -82.1694 168° South 141 162 9,000  Level Jacksonville Center
Fri 08:39:30 PM 28.8428 -82.1625 171° South 139 160 9,000  Level Jacksonville Center
Fri 08:41:38 PM 28.7667 -82.1500 172° South 141 162 9,000  Level Tampa TRACON
Fri 08:42:44 PM 28.7167 -82.1333 164° South 141 162 9,000  Level Tampa TRACON
Fri 08:43:38 PM 28.6833 -82.1333 180° South 142 163 9,000  Level Tampa TRACON
Fri 08:44:38 PM 28.6500 -82.1333 180° South 142 163 9,000  Level Tampa TRACON
Fri 08:45:44 PM 28.6000 -82.1167 164° South 140 161 9,000  Level Tampa TRACON
Fri 08:46:44 PM 28.5667 -82.1167 180° South 139 160 9,000  Level Tampa TRACON
Fri 08:47:50 PM 28.5167 -82.1000 164° South 140 161 9,000  Level Tampa TRACON
Fri 08:48:50 PM 28.4833 -82.1000 180° South 141 162 9,000  Level Tampa TRACON
Fri 08:49:51 PM 28.4500 -82.1000 180° South 142 163 9,000  Level Tampa TRACON
Fri 08:50:51 PM 28.4000 -82.0833 164° South 143 165 9,000  Level Tampa TRACON
Fri 08:51:50 PM 28.3667 -82.0833 180° South 142 163 9,000  Level Tampa TRACON
Fri 08:52:45 PM 28.3333 -82.0667 156° South 139 160 9,000  Level Tampa TRACON
Fri 08:53:45 PM 28.3000 -82.0667 180° South 135 155 9,000  Level Tampa TRACON
Fri 08:54:45 PM 28.2500 -82.0667 180° South 133 153 9,000  Level Tampa TRACON
Fri 08:55:45 PM 28.2167 -82.0500 156° South 136 157 9,000  Level Tampa TRACON
Fri 08:56:51 PM 28.1833 -82.0500 180° South 138 159 9,000  Level Tampa TRACON
Fri 08:57:51 PM 28.1333 -82.0500 180° South 137 158 9,000 -53 Level Tampa TRACON
Fri 08:58:45 PM 28.1000 -82.0333 156° South 137 158 8,900 -211 Descending Tampa TRACON
Fri 08:59:45 PM 28.0667 -82.0333 180° South 145 167 8,600 -276 Descending Tampa TRACON
Fri 09:01:17 PM 28.0056 -82.0158 166° South 113 130 8,200 -276 Descending Miami Center
Fri 09:02:17 PM 27.9689 -81.9956 154° Southeast 134 154 7,900 -300 Descending Miami Center
Fri 09:03:17 PM 27.9300 -81.9750 155° Southeast 147 169 7,600 -250 Descending Miami Center
Fri 09:04:17 PM 27.8911 -81.9544 155° Southeast 152 175 7,400 -250 Descending Miami Center
Fri 09:05:17 PM 27.8514 -81.9503 175° South 147 169 7,100 -200 Descending Miami Center
Fri 09:06:17 PM 27.8097 -81.9556 186° South 147 169 7,000 -50 Descending Miami Center
Fri 09:07:17 PM 27.7742 -81.9561 181° South 142 163 7,000  Level Miami Center
Fri 09:08:17 PM 27.7386 -81.9569 181° South 142 163 7,000  Level Miami Center
Fri 09:09:17 PM 27.6928 -81.9572 180° South 142 163 7,000  Level Miami Center
Fri 09:10:17 PM 27.6550 -81.9625 187° South 142 163 7,000  Level Miami Center
Fri 09:11:17 PM 27.6175 -81.9608 178° South 142 163 7,000  Level Miami Center
Fri 09:12:17 PM 27.5839 -81.9642 185° South 142 163 7,000  Level Miami Center
Fri 09:13:17 PM 27.5483 -81.9672 184° South 142 163 7,000  Level Miami Center
Fri 09:14:17 PM 27.5086 -81.9678 181° South 142 163 7,000  Level Miami Center
Fri 09:15:17 PM 27.4711 -81.9708 184° South 142 163 7,000  Level Miami Center
Fri 09:16:17 PM 27.4333 -81.9714 181° South 142 163 7,000  Level Miami Center
Fri 09:17:17 PM 27.3958 -81.9744 184° South 142 163 7,000  Level Miami Center
Fri 09:18:17 PM 27.3581 -81.9750 181° South 142 163 7,000  Level Miami Center
Fri 09:19:17 PM 27.3206 -81.9781 184° South 142 163 7,000  Level Miami Center
Fri 09:20:17 PM 27.2828 -81.9811 184° South 142 163 7,000 -50 Level Miami Center
Fri 09:21:17 PM 27.2453 -81.9794 178° South 142 163 6,900 -200 Descending Miami Center
Fri 09:22:17 PM 27.2058 -81.9731 172° South 142 163 6,600 -300 Descending Miami Center
Fri 09:23:17 PM 27.1667 -81.9642 169° South 142 163 6,300 -250 Descending Miami Center
Fri 09:24:17 PM 27.1272 -81.9578 172° South 142 163 6,100 -250 Descending Miami Center
Fri 09:25:17 PM 27.0878 -81.9514 172° South 142 163 5,800 -300 Descending Miami Center
Fri 09:26:17 PM 27.0483 -81.9450 172° South 142 163 5,500 -300 Descending Miami Center
Fri 09:28:00 PM 26.9925 -81.9530 200° South  Level FlightAware Approximate
Fri 09:35:00 PM 26.7465 -81.9379 167° South  Level FlightAware Approximate
Fri 09:36:00 PM 26.7110 -81.9285 167° South  Level FlightAware Approximate
Fri 09:37:00 PM 26.6754 -81.9190 167° South  Level FlightAware Approximate
Fri 09:38:00 PM 26.6399 -81.9095 167° South  Level FlightAware Approximate
Fri 09:39:00 PM 26.6044 -81.9000 167° South  Level FlightAware Approximate
Fri 09:40:00 PM 26.5689 -81.8906 167° South  Level FlightAware Approximate
Fri 09:41:00 PM 26.5334 -81.8811 167° South  Level FlightAware Approximate
Fri 09:42:00 PM 26.4979 -81.8716 167° South  Level FlightAware Approximate
Fri 09:43:00 PM 26.4624 -81.8622 167° South  Level FlightAware Approximate
Fri 09:44:00 PM 26.4269 -81.8527 167° South  Level FlightAware Approximate
Fri 09:45:00 PM 26.3918 -81.8417 163° South  Level FlightAware Approximate
Fri 09:46:00 PM 26.3568 -81.8300 163° South  Level FlightAware Approximate
Fri 09:47:00 PM 26.3218 -81.8184 163° South  Level FlightAware Approximate
Fri 09:48:00 PM 26.2869 -81.8067 163° South  Level FlightAware Approximate
Fri 09:49:00 PM 26.2519 -81.7951 163° South  Level FlightAware Approximate
Fri 09:50:00 PM 26.2169 -81.7834 163° South  Level FlightAware Approximate
Fri 09:51:00 PM 26.1813 -81.7745 167° South  Level FlightAware Approximate
Fri 09:52:00 PM 26.1500 -81.7667 167° South  Level FlightAware Approximate
Fri 09:53:00 PM 26.1524 -81.7756 90° East  Level Estimated
Fri 09:54:00 PM 26.1524 -81.7756 167° South  Level Estimated
Fri 09:55:00 PM 26.1524 -81.7756 107° East  Level Estimated
Fri 09:56:00 PM 26.1524 -81.7756 167° South  Level Estimated
Fri 09:57:00 PM 26.1524 -81.7756 107° East  Level Estimated
Fri 09:58:00 PM 26.1524 -81.7756 167° South  Level Estimated
Fri 09:59:00 PM 26.1524 -81.7756 107° East  Level Estimated
Fri 10:00:00 PM 26.1524 -81.7756 167° South  Level Estimated
Fri 10:01:00 PM 26.1524 -81.7756 107° East  Level Estimated
Fri 10:02:00 PM 26.1524 -81.7756 167° South  Level Estimated
Fri 10:03:00 PM 26.1524 -81.7756 107° East  Level Estimated
Fri 10:04:00 PM 26.1524 -81.7756 167° South  Level Estimated
Fri 10:05:00 PM 26.1524 -81.7756 107° East  Level Estimated
Fri 10:06:00 PM 26.1524 -81.7756 167° South  Level Estimated
Fri 10:07:00 PM 26.1524 -81.7756 107° East  Level Estimated

Login

Don't have an account? Register now (free) for customized features, flight alerts, and more!